sensor_id;sensor_type;location;lat;lon;timestamp;P1;durP1;ratioP1;P2;durP2;ratioP2
27632;SDS011;15046;50.930;13.334;2023-02-11T00:00:11;39.10;;;17.83;;
27632;SDS011;15046;50.930;13.334;2023-02-11T00:02:38;35.60;;;17.40;;
27632;SDS011;15046;50.930;13.334;2023-02-11T00:05:04;35.22;;;15.98;;
27632;SDS011;15046;50.930;13.334;2023-02-11T00:07:31;30.90;;;15.20;;
27632;SDS011;15046;50.930;13.334;2023-02-11T00:09:57;38.70;;;16.67;;
27632;SDS011;15046;50.930;13.334;2023-02-11T00:12:23;37.88;;;16.45;;
27632;SDS011;15046;50.930;13.334;2023-02-11T00:14:49;38.55;;;18.45;;
27632;SDS011;15046;50.930;13.334;2023-02-11T00:17:15;34.55;;;16.05;;
27632;SDS011;15046;50.930;13.334;2023-02-11T00:19:41;37.83;;;17.20;;
27632;SDS011;15046;50.930;13.334;2023-02-11T00:22:07;35.08;;;15.80;;
27632;SDS011;15046;50.930;13.334;2023-02-11T00:24:34;41.20;;;19.20;;
27632;SDS011;15046;50.930;13.334;2023-02-11T00:27:00;32.97;;;16.15;;
27632;SDS011;15046;50.930;13.334;2023-02-11T00:29:26;34.78;;;16.70;;
27632;SDS011;15046;50.930;13.334;2023-02-11T00:31:53;35.47;;;16.58;;
27632;SDS011;15046;50.930;13.334;2023-02-11T00:34:19;38.65;;;18.23;;
27632;SDS011;15046;50.930;13.334;2023-02-11T00:36:44;36.38;;;17.35;;
27632;SDS011;15046;50.930;13.334;2023-02-11T00:39:10;30.23;;;14.82;;
27632;SDS011;15046;50.930;13.334;2023-02-11T00:41:36;40.70;;;18.55;;
27632;SDS011;15046;50.930;13.334;2023-02-11T00:44:02;34.03;;;16.95;;
27632;SDS011;15046;50.930;13.334;2023-02-11T00:46:28;38.50;;;18.02;;
27632;SDS011;15046;50.930;13.334;2023-02-11T00:48:54;39.53;;;18.73;;
27632;SDS011;15046;50.930;13.334;2023-02-11T00:51:25;42.25;;;19.70;;
27632;SDS011;15046;50.930;13.334;2023-02-11T00:53:52;37.88;;;16.90;;
27632;SDS011;15046;50.930;13.334;2023-02-11T00:56:18;38.72;;;19.40;;
27632;SDS011;15046;50.930;13.334;2023-02-11T00:58:44;33.65;;;16.10;;
27632;SDS011;15046;50.930;13.334;2023-02-11T01:01:11;42.15;;;18.90;;
27632;SDS011;15046;50.930;13.334;2023-02-11T01:03:37;37.05;;;18.48;;
27632;SDS011;15046;50.930;13.334;2023-02-11T01:06:04;37.85;;;18.73;;
27632;SDS011;15046;50.930;13.334;2023-02-11T01:08:31;39.42;;;19.17;;
27632;SDS011;15046;50.930;13.334;2023-02-11T01:10:58;40.80;;;19.17;;
27632;SDS011;15046;50.930;13.334;2023-02-11T01:13:33;34.25;;;19.08;;
27632;SDS011;15046;50.930;13.334;2023-02-11T01:16:01;35.37;;;18.47;;
27632;SDS011;15046;50.930;13.334;2023-02-11T01:18:27;38.45;;;18.67;;
27632;SDS011;15046;50.930;13.334;2023-02-11T01:20:53;36.72;;;18.77;;
27632;SDS011;15046;50.930;13.334;2023-02-11T01:23:19;38.75;;;18.73;;
27632;SDS011;15046;50.930;13.334;2023-02-11T01:25:46;33.28;;;17.33;;
27632;SDS011;15046;50.930;13.334;2023-02-11T01:28:18;42.20;;;20.98;;
27632;SDS011;15046;50.930;13.334;2023-02-11T01:30:46;42.45;;;19.23;;
27632;SDS011;15046;50.930;13.334;2023-02-11T01:33:12;41.65;;;20.80;;
27632;SDS011;15046;50.930;13.334;2023-02-11T01:35:38;42.30;;;21.15;;
27632;SDS011;15046;50.930;13.334;2023-02-11T01:38:08;40.42;;;19.30;;
27632;SDS011;15046;50.930;13.334;2023-02-11T01:40:39;39.40;;;20.05;;
27632;SDS011;15046;50.930;13.334;2023-02-11T01:43:05;46.45;;;20.45;;
27632;SDS011;15046;50.930;13.334;2023-02-11T01:48:10;35.38;;;18.92;;
27632;SDS011;15046;50.930;13.334;2023-02-11T01:50:39;35.28;;;18.38;;
27632;SDS011;15046;50.930;13.334;2023-02-11T01:53:07;37.55;;;20.45;;
27632;SDS011;15046;50.930;13.334;2023-02-11T01:55:52;35.17;;;15.80;;
27632;SDS011;15046;50.930;13.334;2023-02-11T01:58:39;41.58;;;18.45;;
27632;SDS011;15046;50.930;13.334;2023-02-11T02:01:07;40.35;;;19.67;;
27632;SDS011;15046;50.930;13.334;2023-02-11T02:03:35;37.88;;;18.83;;
27632;SDS011;15046;50.930;13.334;2023-02-11T02:06:08;33.13;;;16.38;;
27632;SDS011;15046;50.930;13.334;2023-02-11T02:11:20;34.63;;;17.75;;
27632;SDS011;15046;50.930;13.334;2023-02-11T02:13:47;37.67;;;18.67;;
27632;SDS011;15046;50.930;13.334;2023-02-11T02:16:14;37.22;;;17.75;;
27632;SDS011;15046;50.930;13.334;2023-02-11T02:24:54;39.20;;;19.38;;
27632;SDS011;15046;50.930;13.334;2023-02-11T02:35:46;37.90;;;18.77;;
27632;SDS011;15046;50.930;13.334;2023-02-11T02:38:35;34.22;;;16.33;;
27632;SDS011;15046;50.930;13.334;2023-02-11T02:41:14;36.83;;;17.40;;
27632;SDS011;15046;50.930;13.334;2023-02-11T02:43:44;35.50;;;17.48;;
27632;SDS011;15046;50.930;13.334;2023-02-11T02:46:20;34.72;;;18.52;;
27632;SDS011;15046;50.930;13.334;2023-02-11T02:48:46;32.97;;;17.08;;
27632;SDS011;15046;50.930;13.334;2023-02-11T02:54:27;37.33;;;19.52;;
27632;SDS011;15046;50.930;13.334;2023-02-11T03:02:40;37.08;;;16.30;;
27632;SDS011;15046;50.930;13.334;2023-02-11T03:05:37;38.13;;;18.80;;
27632;SDS011;15046;50.930;13.334;2023-02-11T03:08:09;34.28;;;17.58;;
27632;SDS011;15046;50.930;13.334;2023-02-11T03:10:41;33.00;;;16.77;;
27632;SDS011;15046;50.930;13.334;2023-02-11T03:13:14;36.20;;;18.98;;
27632;SDS011;15046;50.930;13.334;2023-02-11T03:15:43;41.05;;;18.63;;
27632;SDS011;15046;50.930;13.334;2023-02-11T03:18:12;35.38;;;17.42;;
27632;SDS011;15046;50.930;13.334;2023-02-11T03:20:43;39.65;;;19.35;;
27632;SDS011;15046;50.930;13.334;2023-02-11T03:23:23;31.27;;;17.40;;
27632;SDS011;15046;50.930;13.334;2023-02-11T03:26:08;38.47;;;18.20;;
27632;SDS011;15046;50.930;13.334;2023-02-11T03:31:21;34.40;;;16.30;;
27632;SDS011;15046;50.930;13.334;2023-02-11T03:36:23;34.80;;;18.38;;
27632;SDS011;15046;50.930;13.334;2023-02-11T03:38:55;33.67;;;17.70;;
27632;SDS011;15046;50.930;13.334;2023-02-11T03:41:23;31.80;;;17.48;;
27632;SDS011;15046;50.930;13.334;2023-02-11T03:43:51;31.00;;;17.02;;
27632;SDS011;15046;50.930;13.334;2023-02-11T03:46:21;37.45;;;18.48;;
27632;SDS011;15046;50.930;13.334;2023-02-11T03:48:55;33.83;;;16.85;;
27632;SDS011;15046;50.930;13.334;2023-02-11T03:51:24;34.55;;;18.23;;
27632;SDS011;15046;50.930;13.334;2023-02-11T03:53:53;38.38;;;17.85;;
27632;SDS011;15046;50.930;13.334;2023-02-11T03:56:22;35.13;;;18.13;;
27632;SDS011;15046;50.930;13.334;2023-02-11T03:58:53;37.03;;;17.98;;
27632;SDS011;15046;50.930;13.334;2023-02-11T04:01:18;37.33;;;19.13;;
27632;SDS011;15046;50.930;13.334;2023-02-11T04:03:44;34.17;;;18.35;;
27632;SDS011;15046;50.930;13.334;2023-02-11T04:06:10;35.03;;;17.35;;
27632;SDS011;15046;50.930;13.334;2023-02-11T04:08:36;30.55;;;17.42;;
27632;SDS011;15046;50.930;13.334;2023-02-11T04:11:02;35.15;;;16.83;;
27632;SDS011;15046;50.930;13.334;2023-02-11T04:13:28;30.80;;;16.25;;
27632;SDS011;15046;50.930;13.334;2023-02-11T04:15:54;33.55;;;17.00;;
27632;SDS011;15046;50.930;13.334;2023-02-11T04:18:19;32.17;;;15.52;;
27632;SDS011;15046;50.930;13.334;2023-02-11T04:20:45;29.13;;;15.52;;
27632;SDS011;15046;50.930;13.334;2023-02-11T04:23:12;34.63;;;17.92;;
27632;SDS011;15046;50.930;13.334;2023-02-11T04:25:38;33.38;;;17.00;;
27632;SDS011;15046;50.930;13.334;2023-02-11T04:28:03;34.33;;;15.80;;
27632;SDS011;15046;50.930;13.334;2023-02-11T04:30:29;31.02;;;16.33;;
27632;SDS011;15046;50.930;13.334;2023-02-11T04:32:56;35.22;;;17.38;;
27632;SDS011;15046;50.930;13.334;2023-02-11T04:35:22;34.92;;;16.55;;
27632;SDS011;15046;50.930;13.334;2023-02-11T04:37:48;35.28;;;16.88;;
27632;SDS011;15046;50.930;13.334;2023-02-11T04:40:14;30.77;;;16.35;;
27632;SDS011;15046;50.930;13.334;2023-02-11T04:42:40;30.48;;;15.75;;
27632;SDS011;15046;50.930;13.334;2023-02-11T04:45:06;30.83;;;17.23;;
27632;SDS011;15046;50.930;13.334;2023-02-11T04:47:32;31.67;;;17.05;;
27632;SDS011;15046;50.930;13.334;2023-02-11T04:50:02;31.45;;;16.45;;
27632;SDS011;15046;50.930;13.334;2023-02-11T04:52:28;35.47;;;17.25;;
27632;SDS011;15046;50.930;13.334;2023-02-11T04:54:54;31.52;;;17.33;;
27632;SDS011;15046;50.930;13.334;2023-02-11T04:57:20;33.13;;;16.92;;
27632;SDS011;15046;50.930;13.334;2023-02-11T04:59:45;33.95;;;17.48;;
27632;SDS011;15046;50.930;13.334;2023-02-11T05:02:12;41.30;;;18.45;;
27632;SDS011;15046;50.930;13.334;2023-02-11T05:04:37;37.55;;;19.15;;
27632;SDS011;15046;50.930;13.334;2023-02-11T05:07:03;36.85;;;17.38;;
27632;SDS011;15046;50.930;13.334;2023-02-11T05:09:29;41.80;;;19.70;;
27632;SDS011;15046;50.930;13.334;2023-02-11T05:11:55;32.63;;;18.02;;
27632;SDS011;15046;50.930;13.334;2023-02-11T05:14:20;40.65;;;18.88;;
27632;SDS011;15046;50.930;13.334;2023-02-11T05:16:46;40.38;;;19.08;;
27632;SDS011;15046;50.930;13.334;2023-02-11T05:19:12;37.72;;;18.58;;
27632;SDS011;15046;50.930;13.334;2023-02-11T05:21:38;45.65;;;21.77;;
27632;SDS011;15046;50.930;13.334;2023-02-11T05:24:04;43.58;;;20.10;;
27632;SDS011;15046;50.930;13.334;2023-02-11T05:26:30;40.00;;;19.38;;
27632;SDS011;15046;50.930;13.334;2023-02-11T05:28:56;42.80;;;19.98;;
27632;SDS011;15046;50.930;13.334;2023-02-11T05:31:23;41.33;;;19.95;;
27632;SDS011;15046;50.930;13.334;2023-02-11T05:33:49;46.63;;;21.15;;
27632;SDS011;15046;50.930;13.334;2023-02-11T05:36:15;47.38;;;21.85;;
27632;SDS011;15046;50.930;13.334;2023-02-11T05:38:41;52.63;;;22.02;;
27632;SDS011;15046;50.930;13.334;2023-02-11T05:41:08;45.35;;;21.75;;
27632;SDS011;15046;50.930;13.334;2023-02-11T05:43:34;40.85;;;19.35;;
27632;SDS011;15046;50.930;13.334;2023-02-11T05:46:00;49.58;;;22.05;;
27632;SDS011;15046;50.930;13.334;2023-02-11T05:48:30;45.13;;;21.85;;
27632;SDS011;15046;50.930;13.334;2023-02-11T05:50:56;40.08;;;19.80;;
27632;SDS011;15046;50.930;13.334;2023-02-11T05:53:23;41.47;;;20.02;;
27632;SDS011;15046;50.930;13.334;2023-02-11T05:55:49;39.33;;;19.48;;
27632;SDS011;15046;50.930;13.334;2023-02-11T05:58:15;40.85;;;21.05;;
27632;SDS011;15046;50.930;13.334;2023-02-11T06:00:41;41.95;;;20.13;;
27632;SDS011;15046;50.930;13.334;2023-02-11T06:03:07;39.47;;;19.15;;
27632;SDS011;15046;50.930;13.334;2023-02-11T06:05:33;38.35;;;19.00;;
27632;SDS011;15046;50.930;13.334;2023-02-11T06:07:58;38.60;;;17.85;;
27632;SDS011;15046;50.930;13.334;2023-02-11T06:10:24;38.25;;;18.05;;
27632;SDS011;15046;50.930;13.334;2023-02-11T06:12:50;38.00;;;19.60;;
27632;SDS011;15046;50.930;13.334;2023-02-11T06:15:17;35.35;;;17.35;;
27632;SDS011;15046;50.930;13.334;2023-02-11T06:17:42;39.90;;;19.73;;
27632;SDS011;15046;50.930;13.334;2023-02-11T06:20:09;36.35;;;18.80;;
27632;SDS011;15046;50.930;13.334;2023-02-11T06:22:35;38.67;;;19.02;;
27632;SDS011;15046;50.930;13.334;2023-02-11T06:25:01;34.47;;;17.48;;
27632;SDS011;15046;50.930;13.334;2023-02-11T06:27:29;38.45;;;19.60;;
27632;SDS011;15046;50.930;13.334;2023-02-11T06:29:55;40.45;;;18.48;;
27632;SDS011;15046;50.930;13.334;2023-02-11T06:32:21;43.35;;;21.55;;
27632;SDS011;15046;50.930;13.334;2023-02-11T06:34:47;43.00;;;20.08;;
27632;SDS011;15046;50.930;13.334;2023-02-11T06:37:12;44.90;;;20.38;;
27632;SDS011;15046;50.930;13.334;2023-02-11T06:39:38;47.97;;;21.60;;
27632;SDS011;15046;50.930;13.334;2023-02-11T06:42:04;44.30;;;21.35;;
27632;SDS011;15046;50.930;13.334;2023-02-11T06:44:30;42.20;;;20.58;;
27632;SDS011;15046;50.930;13.334;2023-02-11T06:46:56;38.17;;;20.50;;
27632;SDS011;15046;50.930;13.334;2023-02-11T06:49:21;48.75;;;22.30;;
27632;SDS011;15046;50.930;13.334;2023-02-11T06:51:47;37.22;;;18.17;;
27632;SDS011;15046;50.930;13.334;2023-02-11T06:54:13;45.38;;;21.98;;
27632;SDS011;15046;50.930;13.334;2023-02-11T06:56:39;43.33;;;20.95;;
27632;SDS011;15046;50.930;13.334;2023-02-11T06:59:06;49.85;;;22.60;;
27632;SDS011;15046;50.930;13.334;2023-02-11T07:01:31;49.20;;;22.27;;
27632;SDS011;15046;50.930;13.334;2023-02-11T07:03:57;45.35;;;23.02;;
27632;SDS011;15046;50.930;13.334;2023-02-11T07:06:24;48.55;;;23.30;;
27632;SDS011;15046;50.930;13.334;2023-02-11T07:08:51;56.38;;;24.65;;
27632;SDS011;15046;50.930;13.334;2023-02-11T07:11:19;50.97;;;23.92;;
27632;SDS011;15046;50.930;13.334;2023-02-11T07:13:51;58.20;;;25.92;;
27632;SDS011;15046;50.930;13.334;2023-02-11T07:16:17;57.13;;;24.52;;
27632;SDS011;15046;50.930;13.334;2023-02-11T07:18:44;50.80;;;23.98;;
27632;SDS011;15046;50.930;13.334;2023-02-11T07:21:11;52.22;;;24.58;;
27632;SDS011;15046;50.930;13.334;2023-02-11T07:23:38;49.92;;;23.05;;
27632;SDS011;15046;50.930;13.334;2023-02-11T07:26:05;55.10;;;26.42;;
27632;SDS011;15046;50.930;13.334;2023-02-11T07:28:33;56.35;;;26.15;;
27632;SDS011;15046;50.930;13.334;2023-02-11T07:31:07;53.17;;;25.38;;
27632;SDS011;15046;50.930;13.334;2023-02-11T07:33:34;57.85;;;26.33;;
27632;SDS011;15046;50.930;13.334;2023-02-11T07:36:01;51.70;;;24.40;;
27632;SDS011;15046;50.930;13.334;2023-02-11T07:38:28;51.95;;;24.52;;
27632;SDS011;15046;50.930;13.334;2023-02-11T07:40:58;54.60;;;23.30;;
27632;SDS011;15046;50.930;13.334;2023-02-11T07:45:51;45.78;;;21.90;;
27632;SDS011;15046;50.930;13.334;2023-02-11T07:48:16;47.92;;;22.92;;
27632;SDS011;15046;50.930;13.334;2023-02-11T07:50:42;39.13;;;18.90;;
27632;SDS011;15046;50.930;13.334;2023-02-11T07:53:08;46.28;;;21.75;;
27632;SDS011;15046;50.930;13.334;2023-02-11T07:55:34;45.83;;;23.30;;
27632;SDS011;15046;50.930;13.334;2023-02-11T07:57:59;53.90;;;23.83;;
27632;SDS011;15046;50.930;13.334;2023-02-11T08:00:25;46.53;;;23.80;;
27632;SDS011;15046;50.930;13.334;2023-02-11T08:02:51;44.38;;;21.15;;
27632;SDS011;15046;50.930;13.334;2023-02-11T08:05:17;48.90;;;22.50;;
27632;SDS011;15046;50.930;13.334;2023-02-11T08:07:42;47.97;;;22.17;;
27632;SDS011;15046;50.930;13.334;2023-02-11T08:10:08;49.88;;;22.45;;
27632;SDS011;15046;50.930;13.334;2023-02-11T08:13:15;47.50;;;21.52;;
27632;SDS011;15046;50.930;13.334;2023-02-11T08:15:41;48.85;;;23.48;;
27632;SDS011;15046;50.930;13.334;2023-02-11T08:18:06;45.92;;;20.58;;
27632;SDS011;15046;50.930;13.334;2023-02-11T08:20:32;52.85;;;23.13;;
27632;SDS011;15046;50.930;13.334;2023-02-11T08:22:58;47.33;;;23.40;;
27632;SDS011;15046;50.930;13.334;2023-02-11T08:25:24;46.03;;;21.00;;
27632;SDS011;15046;50.930;13.334;2023-02-11T08:27:50;43.08;;;21.85;;
27632;SDS011;15046;50.930;13.334;2023-02-11T08:30:19;52.13;;;23.15;;
27632;SDS011;15046;50.930;13.334;2023-02-11T08:32:45;46.05;;;22.73;;
27632;SDS011;15046;50.930;13.334;2023-02-11T08:35:11;47.28;;;23.42;;
27632;SDS011;15046;50.930;13.334;2023-02-11T08:37:37;50.95;;;24.27;;
27632;SDS011;15046;50.930;13.334;2023-02-11T08:40:03;51.40;;;23.73;;
27632;SDS011;15046;50.930;13.334;2023-02-11T08:42:29;49.53;;;23.75;;
27632;SDS011;15046;50.930;13.334;2023-02-11T08:44:55;62.28;;;25.33;;
27632;SDS011;15046;50.930;13.334;2023-02-11T08:47:21;54.00;;;24.73;;
27632;SDS011;15046;50.930;13.334;2023-02-11T08:49:46;54.28;;;27.25;;
27632;SDS011;15046;50.930;13.334;2023-02-11T08:52:12;51.40;;;25.35;;
27632;SDS011;15046;50.930;13.334;2023-02-11T08:54:38;54.03;;;26.95;;
27632;SDS011;15046;50.930;13.334;2023-02-11T08:57:04;56.72;;;27.27;;
27632;SDS011;15046;50.930;13.334;2023-02-11T08:59:30;60.63;;;26.73;;
27632;SDS011;15046;50.930;13.334;2023-02-11T09:01:55;55.53;;;25.92;;
27632;SDS011;15046;50.930;13.334;2023-02-11T09:04:22;48.47;;;24.77;;
27632;SDS011;15046;50.930;13.334;2023-02-11T09:06:47;56.58;;;26.20;;
27632;SDS011;15046;50.930;13.334;2023-02-11T09:09:14;53.20;;;25.20;;
27632;SDS011;15046;50.930;13.334;2023-02-11T09:11:40;52.63;;;26.63;;
27632;SDS011;15046;50.930;13.334;2023-02-11T09:14:07;55.88;;;26.73;;
27632;SDS011;15046;50.930;13.334;2023-02-11T09:16:45;53.50;;;26.15;;
27632;SDS011;15046;50.930;13.334;2023-02-11T09:19:12;60.40;;;27.42;;
27632;SDS011;15046;50.930;13.334;2023-02-11T09:21:38;53.58;;;25.08;;
27632;SDS011;15046;50.930;13.334;2023-02-11T09:24:04;50.40;;;25.27;;
27632;SDS011;15046;50.930;13.334;2023-02-11T09:26:31;56.28;;;25.25;;
27632;SDS011;15046;50.930;13.334;2023-02-11T09:28:59;51.78;;;25.02;;
27632;SDS011;15046;50.930;13.334;2023-02-11T09:31:26;58.83;;;25.92;;
27632;SDS011;15046;50.930;13.334;2023-02-11T09:33:55;54.83;;;25.30;;
27632;SDS011;15046;50.930;13.334;2023-02-11T09:36:24;47.40;;;21.88;;
27632;SDS011;15046;50.930;13.334;2023-02-11T09:38:53;52.13;;;26.15;;
27632;SDS011;15046;50.930;13.334;2023-02-11T09:41:26;53.90;;;26.45;;
27632;SDS011;15046;50.930;13.334;2023-02-11T09:44:19;48.17;;;24.00;;
27632;SDS011;15046;50.930;13.334;2023-02-11T09:46:51;48.95;;;24.63;;
27632;SDS011;15046;50.930;13.334;2023-02-11T09:49:33;49.53;;;23.73;;
27632;SDS011;15046;50.930;13.334;2023-02-11T09:55:01;54.25;;;25.92;;
27632;SDS011;15046;50.930;13.334;2023-02-11T09:57:33;45.10;;;22.77;;
27632;SDS011;15046;50.930;13.334;2023-02-11T10:00:00;43.83;;;21.35;;
27632;SDS011;15046;50.930;13.334;2023-02-11T10:02:57;51.90;;;23.58;;
27632;SDS011;15046;50.930;13.334;2023-02-11T10:05:50;47.53;;;23.17;;
27632;SDS011;15046;50.930;13.334;2023-02-11T10:17:25;45.38;;;23.50;;
27632;SDS011;15046;50.930;13.334;2023-02-11T10:22:59;55.92;;;26.10;;
27632;SDS011;15046;50.930;13.334;2023-02-11T10:25:37;46.92;;;23.67;;
27632;SDS011;15046;50.930;13.334;2023-02-11T10:28:16;50.15;;;22.73;;
27632;SDS011;15046;50.930;13.334;2023-02-11T10:30:57;39.03;;;19.83;;
27632;SDS011;15046;50.930;13.334;2023-02-11T10:33:30;43.00;;;21.42;;
27632;SDS011;15046;50.930;13.334;2023-02-11T10:36:16;44.17;;;20.77;;
27632;SDS011;15046;50.930;13.334;2023-02-11T10:38:44;43.63;;;21.63;;
27632;SDS011;15046;50.930;13.334;2023-02-11T10:41:15;45.67;;;23.48;;
27632;SDS011;15046;50.930;13.334;2023-02-11T10:43:46;46.22;;;21.95;;
27632;SDS011;15046;50.930;13.334;2023-02-11T10:46:16;46.05;;;22.58;;
27632;SDS011;15046;50.930;13.334;2023-02-11T10:48:47;49.58;;;25.05;;
27632;SDS011;15046;50.930;13.334;2023-02-11T10:54:08;44.90;;;21.67;;
27632;SDS011;15046;50.930;13.334;2023-02-11T10:56:46;45.00;;;22.92;;
27632;SDS011;15046;50.930;13.334;2023-02-11T10:59:26;39.08;;;18.63;;
27632;SDS011;15046;50.930;13.334;2023-02-11T11:02:01;46.42;;;20.92;;
27632;SDS011;15046;50.930;13.334;2023-02-11T11:04:33;45.45;;;21.92;;
27632;SDS011;15046;50.930;13.334;2023-02-11T11:07:11;40.05;;;20.20;;
27632;SDS011;15046;50.930;13.334;2023-02-11T11:10:05;43.35;;;22.20;;
27632;SDS011;15046;50.930;13.334;2023-02-11T11:12:49;46.80;;;23.77;;
27632;SDS011;15046;50.930;13.334;2023-02-11T11:17:46;48.35;;;22.40;;
27632;SDS011;15046;50.930;13.334;2023-02-11T11:22:53;42.38;;;22.00;;
27632;SDS011;15046;50.930;13.334;2023-02-11T11:25:38;42.38;;;22.70;;
27632;SDS011;15046;50.930;13.334;2023-02-11T11:29:09;47.22;;;21.95;;
27632;SDS011;15046;50.930;13.334;2023-02-11T11:31:03;46.40;;;21.75;;
27632;SDS011;15046;50.930;13.334;2023-02-11T11:33:36;41.28;;;21.17;;
27632;SDS011;15046;50.930;13.334;2023-02-11T11:36:06;42.78;;;23.10;;
27632;SDS011;15046;50.930;13.334;2023-02-11T11:38:35;46.88;;;23.23;;
27632;SDS011;15046;50.930;13.334;2023-02-11T11:46:40;49.30;;;23.00;;
27632;SDS011;15046;50.930;13.334;2023-02-11T11:54:54;48.03;;;22.40;;
27632;SDS011;15046;50.930;13.334;2023-02-11T11:57:27;38.78;;;21.00;;
27632;SDS011;15046;50.930;13.334;2023-02-11T11:59:56;41.08;;;22.10;;
27632;SDS011;15046;50.930;13.334;2023-02-11T12:05:24;44.58;;;22.63;;
27632;SDS011;15046;50.930;13.334;2023-02-11T12:10:50;42.05;;;20.98;;
27632;SDS011;15046;50.930;13.334;2023-02-11T12:13:33;37.50;;;19.85;;
27632;SDS011;15046;50.930;13.334;2023-02-11T12:16:26;39.28;;;20.48;;
27632;SDS011;15046;50.930;13.334;2023-02-11T12:27:17;44.00;;;21.30;;
27632;SDS011;15046;50.930;13.334;2023-02-11T12:33:02;40.80;;;19.50;;
27632;SDS011;15046;50.930;13.334;2023-02-11T12:38:21;35.78;;;17.52;;
27632;SDS011;15046;50.930;13.334;2023-02-11T12:41:02;40.70;;;20.15;;
27632;SDS011;15046;50.930;13.334;2023-02-11T12:43:36;38.83;;;20.00;;
27632;SDS011;15046;50.930;13.334;2023-02-11T12:46:13;40.10;;;20.17;;
27632;SDS011;15046;50.930;13.334;2023-02-11T12:57:17;41.80;;;21.33;;
27632;SDS011;15046;50.930;13.334;2023-02-11T13:00:00;44.60;;;21.63;;
27632;SDS011;15046;50.930;13.334;2023-02-11T13:02:41;47.33;;;21.83;;
27632;SDS011;15046;50.930;13.334;2023-02-11T13:05:37;38.67;;;20.47;;
27632;SDS011;15046;50.930;13.334;2023-02-11T13:08:20;42.63;;;20.55;;
27632;SDS011;15046;50.930;13.334;2023-02-11T13:11:11;50.22;;;21.52;;
27632;SDS011;15046;50.930;13.334;2023-02-11T13:13:56;47.10;;;21.63;;
27632;SDS011;15046;50.930;13.334;2023-02-11T13:16:44;47.75;;;23.33;;
27632;SDS011;15046;50.930;13.334;2023-02-11T13:25:30;50.33;;;24.27;;
27632;SDS011;15046;50.930;13.334;2023-02-11T13:30:46;51.15;;;23.17;;
27632;SDS011;15046;50.930;13.334;2023-02-11T13:36:09;44.65;;;20.77;;
27632;SDS011;15046;50.930;13.334;2023-02-11T13:38:36;37.25;;;19.92;;
27632;SDS011;15046;50.930;13.334;2023-02-11T13:41:03;46.85;;;21.48;;
27632;SDS011;15046;50.930;13.334;2023-02-11T13:43:46;46.65;;;22.17;;
27632;SDS011;15046;50.930;13.334;2023-02-11T13:49:40;42.15;;;21.25;;
27632;SDS011;15046;50.930;13.334;2023-02-11T13:52:27;44.50;;;22.52;;
27632;SDS011;15046;50.930;13.334;2023-02-11T13:55:08;41.88;;;22.20;;
27632;SDS011;15046;50.930;13.334;2023-02-11T13:57:40;52.42;;;22.63;;
27632;SDS011;15046;50.930;13.334;2023-02-11T14:09:07;44.42;;;23.02;;
27632;SDS011;15046;50.930;13.334;2023-02-11T14:14:15;44.75;;;21.25;;
27632;SDS011;15046;50.930;13.334;2023-02-11T14:19:35;41.13;;;21.73;;
27632;SDS011;15046;50.930;13.334;2023-02-11T14:22:10;38.88;;;19.92;;
27632;SDS011;15046;50.930;13.334;2023-02-11T14:24:45;41.63;;;21.20;;
27632;SDS011;15046;50.930;13.334;2023-02-11T14:27:27;32.78;;;17.92;;
27632;SDS011;15046;50.930;13.334;2023-02-11T14:41:26;38.53;;;19.60;;
27632;SDS011;15046;50.930;13.334;2023-02-11T14:44:00;41.05;;;20.63;;
27632;SDS011;15046;50.930;13.334;2023-02-11T14:46:37;42.28;;;20.90;;
27632;SDS011;15046;50.930;13.334;2023-02-11T14:49:15;42.63;;;21.67;;
27632;SDS011;15046;50.930;13.334;2023-02-11T14:52:14;41.83;;;20.58;;
27632;SDS011;15046;50.930;13.334;2023-02-11T14:54:52;41.50;;;20.60;;
27632;SDS011;15046;50.930;13.334;2023-02-11T14:57:31;37.28;;;20.10;;
27632;SDS011;15046;50.930;13.334;2023-02-11T15:00:04;42.75;;;20.50;;
27632;SDS011;15046;50.930;13.334;2023-02-11T15:02:41;40.17;;;19.63;;
27632;SDS011;15046;50.930;13.334;2023-02-11T15:05:18;40.70;;;20.73;;
27632;SDS011;15046;50.930;13.334;2023-02-11T15:08:11;41.33;;;19.75;;
27632;SDS011;15046;50.930;13.334;2023-02-11T15:10:42;41.50;;;19.73;;
27632;SDS011;15046;50.930;13.334;2023-02-11T15:13:13;44.65;;;20.55;;
27632;SDS011;15046;50.930;13.334;2023-02-11T15:15:45;42.78;;;20.85;;
27632;SDS011;15046;50.930;13.334;2023-02-11T15:18:18;37.70;;;19.15;;
27632;SDS011;15046;50.930;13.334;2023-02-11T15:20:48;41.72;;;20.50;;
27632;SDS011;15046;50.930;13.334;2023-02-11T15:23:18;41.60;;;20.77;;
27632;SDS011;15046;50.930;13.334;2023-02-11T15:25:48;40.22;;;19.15;;
27632;SDS011;15046;50.930;13.334;2023-02-11T15:28:44;41.85;;;21.17;;
27632;SDS011;15046;50.930;13.334;2023-02-11T15:31:14;39.13;;;20.67;;
27632;SDS011;15046;50.930;13.334;2023-02-11T15:33:42;41.75;;;20.58;;
27632;SDS011;15046;50.930;13.334;2023-02-11T15:36:08;42.53;;;22.83;;
27632;SDS011;15046;50.930;13.334;2023-02-11T15:38:36;44.95;;;23.05;;
27632;SDS011;15046;50.930;13.334;2023-02-11T15:41:03;45.58;;;24.27;;
27632;SDS011;15046;50.930;13.334;2023-02-11T15:43:48;58.40;;;33.97;;
27632;SDS011;15046;50.930;13.334;2023-02-11T15:46:21;51.75;;;28.02;;
27632;SDS011;15046;50.930;13.334;2023-02-11T15:48:48;49.42;;;26.38;;
27632;SDS011;15046;50.930;13.334;2023-02-11T15:54:14;95.30;;;47.10;;
27632;SDS011;15046;50.930;13.334;2023-02-11T15:56:43;48.20;;;25.77;;
27632;SDS011;15046;50.930;13.334;2023-02-11T16:01:55;49.45;;;25.58;;
27632;SDS011;15046;50.930;13.334;2023-02-11T16:04:24;71.95;;;33.17;;
27632;SDS011;15046;50.930;13.334;2023-02-11T16:06:51;63.92;;;30.30;;
27632;SDS011;15046;50.930;13.334;2023-02-11T16:14:48;79.63;;;39.78;;
27632;SDS011;15046;50.930;13.334;2023-02-11T16:17:26;53.95;;;25.77;;
27632;SDS011;15046;50.930;13.334;2023-02-11T16:22:26;47.55;;;23.63;;
27632;SDS011;15046;50.930;13.334;2023-02-11T16:24:55;48.88;;;24.17;;
27632;SDS011;15046;50.930;13.334;2023-02-11T16:27:24;51.22;;;24.42;;
27632;SDS011;15046;50.930;13.334;2023-02-11T16:29:56;50.42;;;24.17;;
27632;SDS011;15046;50.930;13.334;2023-02-11T16:32:26;50.45;;;24.77;;
27632;SDS011;15046;50.930;13.334;2023-02-11T16:34:54;56.13;;;25.33;;
27632;SDS011;15046;50.930;13.334;2023-02-11T16:37:25;57.92;;;25.13;;
27632;SDS011;15046;50.930;13.334;2023-02-11T16:39:54;57.75;;;28.50;;
27632;SDS011;15046;50.930;13.334;2023-02-11T16:42:22;58.90;;;29.02;;
27632;SDS011;15046;50.930;13.334;2023-02-11T16:44:48;54.47;;;26.58;;
27632;SDS011;15046;50.930;13.334;2023-02-11T16:47:24;65.50;;;27.88;;
27632;SDS011;15046;50.930;13.334;2023-02-11T16:49:52;59.45;;;26.98;;
27632;SDS011;15046;50.930;13.334;2023-02-11T16:52:20;69.90;;;28.42;;
27632;SDS011;15046;50.930;13.334;2023-02-11T16:54:46;57.90;;;26.08;;
27632;SDS011;15046;50.930;13.334;2023-02-11T16:57:13;58.35;;;27.00;;
27632;SDS011;15046;50.930;13.334;2023-02-11T16:59:41;65.93;;;26.92;;